createdAt,value
2023-03-17T00:01:16.429Z,-2.22
2023-03-17T00:06:33.030Z,-2.26
2023-03-17T00:11:36.088Z,-2.30
2023-03-17T00:16:43.941Z,-2.36
2023-03-17T00:21:48.263Z,-2.43
2023-03-17T00:26:51.221Z,-2.48
2023-03-17T00:31:55.308Z,-2.54
2023-03-17T00:36:58.331Z,-2.54
2023-03-17T00:42:01.624Z,-2.59
2023-03-17T00:47:05.062Z,-2.64
2023-03-17T00:52:09.307Z,-2.66
2023-03-17T00:57:12.726Z,-2.68
2023-03-17T01:02:15.777Z,-2.73
2023-03-17T01:07:18.572Z,-2.76
2023-03-17T01:12:21.689Z,-2.82
2023-03-17T01:17:24.657Z,-2.86
2023-03-17T01:22:27.938Z,-2.89
2023-03-17T01:27:36.697Z,-2.93
2023-03-17T01:32:39.687Z,-2.93
2023-03-17T01:37:42.732Z,-2.96
2023-03-17T01:42:54.445Z,-3.00
2023-03-17T01:47:57.437Z,-3.02
2023-03-17T01:53:00.536Z,-3.09
2023-03-17T01:58:03.677Z,-3.09
2023-03-17T02:03:06.627Z,-3.14
2023-03-17T02:08:16.603Z,-3.18
2023-03-17T02:13:19.861Z,-3.22
2023-03-17T02:18:24.133Z,-3.26
2023-03-17T02:23:27.228Z,-3.28
2023-03-17T02:28:31.694Z,-3.34
2023-03-17T02:33:34.728Z,-3.34
2023-03-17T02:38:37.983Z,-3.30
2023-03-17T02:43:41.674Z,-3.25
2023-03-17T02:48:47.028Z,-3.27
2023-03-17T02:53:50.243Z,-3.29
2023-03-17T02:58:53.473Z,-3.35
2023-03-17T03:03:57.679Z,-3.44
2023-03-17T03:09:00.538Z,-3.53
2023-03-17T03:14:03.610Z,-3.60
2023-03-17T03:19:08.364Z,-3.60
2023-03-17T03:24:11.722Z,-3.59
2023-03-17T03:29:14.765Z,-3.60
2023-03-17T03:34:17.756Z,-3.65
2023-03-17T03:39:20.742Z,-3.74
2023-03-17T03:44:24.607Z,-3.79
2023-03-17T03:49:27.767Z,-3.83
2023-03-17T03:54:30.927Z,-3.87
2023-03-17T03:59:34.058Z,-3.93
2023-03-17T04:04:38.708Z,-3.96
2023-03-17T04:09:42.566Z,-3.98
2023-03-17T04:14:45.762Z,-4.04
2023-03-17T04:19:49.308Z,-4.09
2023-03-17T04:24:52.388Z,-4.12
2023-03-17T04:29:55.389Z,-4.15
2023-03-17T04:34:58.584Z,-4.15
2023-03-17T04:40:01.638Z,-4.15
2023-03-17T04:45:06.865Z,-4.17
2023-03-17T04:50:11.808Z,-4.20
2023-03-17T04:55:15.011Z,-4.23
2023-03-17T05:00:18.705Z,-4.25
2023-03-17T05:05:21.732Z,-4.22
2023-03-17T05:10:25.053Z,-4.18
2023-03-17T05:15:28.165Z,-4.16
2023-03-17T05:20:32.078Z,-4.05
2023-03-17T05:25:35.758Z,-3.96
2023-03-17T05:30:39.140Z,-3.79
2023-03-17T05:35:43.014Z,-3.61
2023-03-17T05:40:46.139Z,-3.43
2023-03-17T05:45:50.737Z,-3.26
2023-03-17T05:50:54.151Z,-3.09
2023-03-17T05:55:56.994Z,-2.93
2023-03-17T06:01:00.009Z,-2.75
2023-03-17T06:06:03.027Z,-2.53
2023-03-17T06:11:06.811Z,-2.28
2023-03-17T06:16:09.937Z,-2.04
2023-03-17T06:21:13.852Z,-1.81
2023-03-17T06:26:16.779Z,-1.59
2023-03-17T06:31:19.926Z,-1.36
2023-03-17T06:36:23.428Z,-1.10
2023-03-17T06:41:27.672Z,-0.79
2023-03-17T06:46:30.553Z,-0.51
2023-03-17T06:51:34.363Z,-0.17
2023-03-17T06:56:37.350Z,0.29
2023-03-17T07:01:40.878Z,0.74
2023-03-17T07:06:44.994Z,1.16
2023-03-17T07:11:47.990Z,1.55
2023-03-17T07:16:51.041Z,1.95
2023-03-17T07:21:57.706Z,2.33
2023-03-17T07:27:00.777Z,2.71
2023-03-17T07:32:06.504Z,3.07
2023-03-17T07:37:10.442Z,3.40
2023-03-17T07:42:17.186Z,3.71
2023-03-17T07:47:20.626Z,3.98
2023-03-17T07:52:23.700Z,4.26
2023-03-17T07:57:27.415Z,4.57
2023-03-17T08:02:31.881Z,4.80
2023-03-17T08:07:37.565Z,5.16
2023-03-17T08:12:42.666Z,6.31
2023-03-17T08:17:45.734Z,7.39
2023-03-17T08:22:48.745Z,7.93
2023-03-17T08:27:52.151Z,8.79
2023-03-17T08:32:55.049Z,9.25
2023-03-17T08:37:58.117Z,9.75
2023-03-17T08:43:01.372Z,10.47
2023-03-17T08:48:04.486Z,11.36
2023-03-17T08:53:08.555Z,11.85
2023-03-17T08:58:11.513Z,12.34
2023-03-17T09:03:15.483Z,12.42
2023-03-17T09:08:18.497Z,12.52
2023-03-17T09:13:22.820Z,12.77
2023-03-17T09:18:26.129Z,13.18
2023-03-17T09:23:29.287Z,13.17
2023-03-17T09:28:32.903Z,12.95
2023-03-17T09:33:35.917Z,12.48
2023-03-17T09:38:39.259Z,11.71
2023-03-17T09:44:00.606Z,11.58
2023-03-17T09:49:08.355Z,11.79
2023-03-17T09:54:34.190Z,12.32
2023-03-17T09:59:48.152Z,13.18
2023-03-17T10:04:52.011Z,13.93
2023-03-17T10:10:24.362Z,14.40
2023-03-17T10:16:01.597Z,14.22
2023-03-17T10:21:07.981Z,13.81
2023-03-17T10:26:46.661Z,13.62
2023-03-17T10:31:56.374Z,13.74
2023-03-17T10:37:15.585Z,14.01
2023-03-17T10:42:30.348Z,14.43
2023-03-17T10:47:44.733Z,14.75
2023-03-17T10:52:53.661Z,14.78
2023-03-17T10:58:15.572Z,14.86
2023-03-17T11:03:39.985Z,15.19
2023-03-17T11:08:49.505Z,15.34
2023-03-17T11:14:06.171Z,15.41
2023-03-17T11:19:17.009Z,16.02
2023-03-17T11:24:51.497Z,16.34
2023-03-17T11:30:19.129Z,16.97
2023-03-17T11:35:44.237Z,17.35
2023-03-17T11:41:33.859Z,17.42
2023-03-17T11:46:46.691Z,17.33
2023-03-17T11:52:16.437Z,17.31
2023-03-17T11:57:52.941Z,17.51
2023-03-17T12:03:09.164Z,17.43
2023-03-17T12:08:35.727Z,17.22
2023-03-17T12:13:57.061Z,17.15
2023-03-17T12:19:42.584Z,16.96
2023-03-17T12:25:16.692Z,16.65
2023-03-17T12:30:54.508Z,16.41
2023-03-17T12:35:59.022Z,16.12
2023-03-17T12:41:45.541Z,15.90
2023-03-17T12:47:23.327Z,15.39
2023-03-17T12:52:37.610Z,15.30
2023-03-17T12:58:08.109Z,15.09
2023-03-17T13:03:23.948Z,14.54
2023-03-17T13:08:45.283Z,14.20
2023-03-17T13:14:08.743Z,13.97
2023-03-17T13:19:33.612Z,13.63
2023-03-17T13:24:52.322Z,13.40
2023-03-17T13:29:55.337Z,13.08
2023-03-17T13:35:01.753Z,13.07
2023-03-17T13:40:13.667Z,13.17
2023-03-17T13:45:43.185Z,13.23
2023-03-17T13:50:47.944Z,13.24
2023-03-17T13:56:31.721Z,13.21
2023-03-17T14:01:51.578Z,13.17
2023-03-17T14:07:00.733Z,13.05
2023-03-17T14:12:24.878Z,12.94
2023-03-17T14:17:47.110Z,12.99
2023-03-17T14:23:02.331Z,12.92
2023-03-17T14:28:12.418Z,13.12
2023-03-17T14:33:37.972Z,13.31
2023-03-17T14:38:53.182Z,13.54
2023-03-17T14:44:01.600Z,13.37
2023-03-17T14:49:20.448Z,13.24
2023-03-17T14:54:35.254Z,13.06
2023-03-17T14:59:41.431Z,12.96
2023-03-17T15:05:12.920Z,13.13
2023-03-17T15:10:22.938Z,13.38
2023-03-17T15:15:39.193Z,13.49
2023-03-17T15:20:44.363Z,13.64
2023-03-17T15:25:56.390Z,13.39
2023-03-17T15:31:13.090Z,13.06
2023-03-17T15:36:31.451Z,12.54
2023-03-17T15:41:34.895Z,12.11
2023-03-17T15:46:37.678Z,11.70
2023-03-17T15:51:40.645Z,11.38
2023-03-17T15:56:43.705Z,11.13
2023-03-17T16:01:46.951Z,10.78
2023-03-17T16:06:50.034Z,10.42
2023-03-17T16:11:52.988Z,10.07
2023-03-17T16:16:56.183Z,9.80
2023-03-17T16:21:59.343Z,9.49
2023-03-17T16:27:02.638Z,9.18
2023-03-17T16:32:09.147Z,8.85
2023-03-17T16:37:21.164Z,8.49
2023-03-17T16:42:24.619Z,8.17
2023-03-17T16:47:27.772Z,7.81
2023-03-17T16:52:31.354Z,7.44
2023-03-17T16:57:34.472Z,7.08
2023-03-17T17:02:37.492Z,6.74
2023-03-17T17:07:40.772Z,6.39
2023-03-17T17:12:44.192Z,6.05
2023-03-17T17:18:01.365Z,5.79
2023-03-17T17:23:05.006Z,5.55
2023-03-17T17:28:08.805Z,5.32
2023-03-17T17:33:12.711Z,5.10
2023-03-17T17:38:29.142Z,4.89
2023-03-17T17:43:32.515Z,4.71
2023-03-17T17:48:35.710Z,4.57
2023-03-17T17:53:39.253Z,4.47
2023-03-17T17:58:43.232Z,4.35
2023-03-17T18:03:46.464Z,4.23
2023-03-17T18:08:50.384Z,4.12
2023-03-17T18:13:53.440Z,3.99
2023-03-17T18:18:57.859Z,3.88
2023-03-17T18:24:01.508Z,3.77
2023-03-17T18:29:05.997Z,3.64
2023-03-17T18:34:19.511Z,3.49
2023-03-17T18:39:23.004Z,3.34
2023-03-17T18:44:25.849Z,3.19
2023-03-17T18:49:29.122Z,3.02
2023-03-17T18:54:32.342Z,2.90
2023-03-17T18:59:35.636Z,2.78
2023-03-17T19:04:45.877Z,2.65
2023-03-17T19:09:49.578Z,2.51
2023-03-17T19:14:52.878Z,2.38
2023-03-17T19:19:56.162Z,2.24
2023-03-17T19:24:59.452Z,2.10
2023-03-17T19:30:02.875Z,1.97
2023-03-17T19:35:07.980Z,1.86
2023-03-17T19:40:13.400Z,1.77
2023-03-17T19:45:16.601Z,1.66
2023-03-17T19:50:20.662Z,1.59
2023-03-17T19:55:25.396Z,1.51
2023-03-17T20:00:28.325Z,1.44
2023-03-17T20:05:31.347Z,1.36
2023-03-17T20:10:34.601Z,1.26
2023-03-17T20:15:38.323Z,1.23
2023-03-17T20:20:54.086Z,1.20
2023-03-17T20:25:57.469Z,1.17
2023-03-17T20:31:04.758Z,1.12
2023-03-17T20:36:08.536Z,1.05
2023-03-17T20:41:18.603Z,0.98
2023-03-17T20:46:24.819Z,0.90
2023-03-17T20:51:28.288Z,0.82
2023-03-17T20:56:34.297Z,0.76
2023-03-17T21:01:38.904Z,0.71
2023-03-17T21:06:42.901Z,0.66
2023-03-17T21:11:46.718Z,0.57
2023-03-17T21:16:50.423Z,0.51
2023-03-17T21:21:53.964Z,0.44
2023-03-17T21:26:57.560Z,0.36
2023-03-17T21:32:02.055Z,0.30
2023-03-17T21:37:05.893Z,0.22
2023-03-17T21:42:09.749Z,0.18
2023-03-17T21:47:12.785Z,0.15
2023-03-17T21:52:16.293Z,0.14
2023-03-17T21:57:19.450Z,0.10
2023-03-17T22:02:23.833Z,0.04
2023-03-17T22:07:26.856Z,-0.01
2023-03-17T22:12:29.649Z,-0.07
2023-03-17T22:17:32.725Z,-0.13
2023-03-17T22:22:36.045Z,-0.15
2023-03-17T22:27:39.015Z,-0.19
2023-03-17T22:32:42.778Z,-0.23
2023-03-17T22:37:45.962Z,-0.24
2023-03-17T22:42:48.931Z,-0.27
2023-03-17T22:47:52.443Z,-0.30
2023-03-17T22:52:55.514Z,-0.34
2023-03-17T22:57:58.432Z,-0.40
2023-03-17T23:03:01.582Z,-0.45
2023-03-17T23:08:04.950Z,-0.49
2023-03-17T23:13:08.600Z,-0.58
2023-03-17T23:18:12.176Z,-0.64
2023-03-17T23:23:15.410Z,-0.72
2023-03-17T23:28:20.053Z,-0.78
2023-03-17T23:33:24.118Z,-0.78
2023-03-17T23:38:27.961Z,-0.84
2023-03-17T23:43:31.233Z,-0.88
2023-03-17T23:48:34.182Z,-0.96
2023-03-17T23:53:39.705Z,-1.09
2023-03-17T23:58:43.681Z,-1.16
